Time;durP1;ratioP1;P1;durP2;ratioP2;P2;SDS_P1;SDS_P2;PMS_P1;PMS_P2;Temp;Humidity;BMP_temperature;BMP_pressure;BME280_temperature;BME280_humidity;BME280_pressure;Samples;Min_cycle;Max_cycle;Signal;HPM_P1;HPM_P2
2022/02/24 00:01:45;;;;;;;16.13;2.20;;;;;;;2.07;99.01;101510.06;4969446;28;20061;-84
2022/02/24 00:04:11;;;;;;;16.95;2.22;;;;;;;2.10;99.21;101513.53;4965799;28;20433;-88
2022/02/24 00:06:46;;;;;;;14.10;2.05;;;;;;;2.12;98.73;101518.75;4964967;28;20035;-87
2022/02/24 00:09:13;;;;;;;19.23;2.38;;;;;;;2.12;98.96;101509.22;4950767;28;20143;-85
2022/02/24 00:11:48;;;;;;;11.85;2.05;;;3.70;99.90;;;2.10;98.55;101505.75;4969445;28;20122;-82
2022/02/24 00:14:14;;;;;;;12.95;2.40;;;3.60;99.90;;;2.12;98.66;101506.63;4985701;28;20034;-82
2022/02/24 00:16:39;;;;;;;11.95;1.85;;;3.70;99.90;;;2.19;98.99;101510.94;4941556;28;20056;-82
2022/02/24 00:19:05;;;;;;;19.48;2.63;;;3.70;99.90;;;2.15;98.37;101506.59;4919065;28;20038;-85
2022/02/24 00:21:31;;;;;;;9.70;2.03;;;3.70;99.90;;;2.11;98.47;101501.41;4910190;28;20035;-81
2022/02/24 00:24:08;;;;;;;13.60;2.08;;;3.70;99.90;;;2.10;98.46;101492.75;4905973;28;20022;-81
2022/02/24 00:26:34;;;;;;;21.60;2.75;;;3.60;99.90;;;2.11;98.65;101491.03;4934493;28;20519;-81
2022/02/24 00:29:00;;;;;;;19.17;2.65;;;3.60;99.90;;;2.09;98.48;101501.41;4882440;28;20495;-81
2022/02/24 00:31:34;;;;;;;12.38;2.58;;;3.60;99.90;;;2.13;98.52;101491.88;4931154;28;20045;-81
2022/02/24 00:34:01;;;;;;;13.23;2.15;;;3.60;99.90;;;2.13;98.46;101490.16;4928758;28;20137;-81
2022/02/24 00:36:27;;;;;;;10.63;2.13;;;3.60;99.90;;;2.14;98.42;101494.50;4938053;28;20096;-81
2022/02/24 00:39:03;;;;;;;14.68;2.28;;;3.70;99.90;;;2.17;98.72;101480.63;4909591;28;20029;-81
2022/02/24 00:41:29;;;;;;;14.75;2.22;;;3.70;99.90;;;2.21;98.46;101483.22;4938304;28;20027;-81
2022/02/24 00:43:55;;;;;;;15.23;2.50;;;3.70;99.90;;;2.24;98.67;101470.22;4926880;28;20037;-81
2022/02/24 00:46:30;;;;;;;13.85;2.72;;;3.80;99.90;;;2.31;98.12;101478.91;4927429;28;20415;-81
2022/02/24 00:48:56;;;;;;;16.30;2.53;;;3.80;99.90;;;2.37;98.40;101471.09;4944561;28;20057;-81
2022/02/24 00:51:22;;;;;;;16.00;2.70;;;;;;;2.44;98.25;101472.84;4923202;28;20368;-81
2022/02/24 00:53:48;;;;;;;19.40;2.50;;;4.00;99.90;;;2.52;97.97;101462.41;4928900;28;20490;-81
2022/02/24 00:56:22;;;;;;;12.48;2.35;;;4.00;99.90;;;2.61;97.62;101462.41;4921000;28;20019;-81
2022/02/24 00:58:49;;;;;;;12.85;2.45;;;4.10;99.90;;;2.66;97.72;101450.25;4888240;28;20146;-81
2022/02/24 01:01:15;;;;;;;13.88;2.30;;;4.20;99.90;;;2.75;97.00;101448.50;4927419;28;20030;-81
2022/02/24 01:03:51;;;;;;;22.27;2.90;;;;;;;2.81;97.02;101451.09;4924091;28;20140;-81
2022/02/24 01:06:17;;;;;;;14.88;2.80;;;4.30;99.90;;;2.84;96.34;101446.72;4929778;28;20041;-81
2022/02/24 01:08:43;;;;;;;12.30;2.53;;;4.30;99.90;;;2.91;96.13;101438.91;4903010;28;20050;-82
2022/02/24 01:11:14;;;;;;;21.35;3.05;;;4.40;99.90;;;2.92;96.10;101436.31;4927654;28;20025;-81
2022/02/24 01:13:41;;;;;;;17.88;2.70;;;;;;;2.97;96.09;101431.94;4901929;28;20056;-81
2022/02/24 01:16:07;;;;;;;18.63;2.83;;;4.50;99.90;;;3.02;95.63;101440.63;4931915;28;20033;-81
2022/02/24 01:18:33;;;;;;;15.32;2.67;;;4.50;99.90;;;3.08;95.27;101432.75;4880351;28;20045;-81
2022/02/24 01:20:59;;;;;;;14.93;3.17;;;4.50;99.90;;;3.13;95.08;101426.66;4882906;28;20049;-81
2022/02/24 01:23:36;;;;;;;12.85;2.65;;;4.60;99.90;;;3.17;94.90;101420.56;4890760;28;20030;-81
2022/02/24 01:26:02;;;;;;;15.52;2.78;;;4.70;99.90;;;3.16;94.37;101413.66;4877648;28;20100;-81
2022/02/24 01:28:28;;;;;;;15.40;2.55;;;4.70;99.90;;;3.23;94.29;101416.22;4911051;28;20034;-80
2022/02/24 01:31:03;;;;;;;12.70;2.40;;;;;;;3.27;93.90;101409.25;4924680;28;20026;-81
2022/02/24 01:33:29;;;;;;;16.50;2.50;;;4.70;99.90;;;3.28;93.65;101403.16;4911079;28;20506;-80
2022/02/24 01:35:55;;;;;;;11.75;2.25;;;4.80;99.90;;;3.31;93.44;101397.09;4900350;28;20627;-81
2022/02/24 01:38:26;;;;;;;12.85;2.55;;;4.80;99.90;;;3.34;93.35;101400.53;4900216;28;20040;-81
2022/02/24 01:40:52;;;;;;;16.55;2.33;;;4.80;99.90;;;3.35;92.74;101389.25;4902074;28;20030;-81
2022/02/24 01:43:18;;;;;;;11.68;2.55;;;4.80;99.90;;;3.37;92.97;101384.03;4897632;28;20031;-81
2022/02/24 01:45:44;;;;;;;10.00;1.90;;;4.90;99.90;;;3.37;92.45;101387.50;4887827;28;20072;-81
2022/02/24 01:48:10;;;;;;;10.77;2.45;;;4.80;99.90;;;3.35;92.63;101381.44;4886491;28;20039;-80
2022/02/24 01:50:38;;;;;;;12.60;2.42;;;4.90;99.90;;;3.35;92.20;101377.97;4912774;28;20045;-81
2022/02/24 01:53:11;;;;;;;12.32;2.38;;;4.90;99.90;;;3.38;92.42;101383.16;4903037;28;20026;-81
2022/02/24 01:55:37;;;;;;;8.65;1.65;;;4.80;99.90;;;3.31;92.07;101377.13;4907295;28;20111;-82
2022/02/24 01:58:03;;;;;;;15.35;2.88;;;4.90;99.90;;;3.33;92.04;101379.75;4885224;28;20480;-81
2022/02/24 02:00:40;;;;;;;16.08;2.58;;;4.80;99.90;;;3.30;92.29;101378.00;4924440;28;20145;-81
2022/02/24 02:03:07;;;;;;;17.38;2.67;;;4.80;99.90;;;3.27;91.84;101370.22;4880363;28;20022;-80
2022/02/24 02:05:43;;;;;;;15.20;2.72;;;4.80;99.90;;;3.22;91.91;101364.19;4889139;28;20042;-81
2022/02/24 02:08:09;;;;;;;14.75;2.80;;;4.80;99.90;;;3.24;92.12;101360.69;4916949;28;20043;-81
2022/02/24 02:10:35;;;;;;;11.07;2.38;;;4.80;99.90;;;3.24;92.25;101365.91;4907771;28;20034;-81
2022/02/24 02:13:11;;;;;;;15.60;3.35;;;4.80;99.90;;;3.21;91.95;101354.63;4877403;28;20039;-81
2022/02/24 02:15:37;;;;;;;;;;;4.80;99.90;;;3.15;91.98;101352.06;4896263;28;20025;-82
2022/02/24 02:18:03;;;;;;;15.00;2.63;;;4.70;99.90;;;3.15;92.05;101339.91;4917046;28;20818;-81
2022/02/24 02:20:39;;;;;;;12.85;2.85;;;4.70;99.90;;;3.15;92.32;101336.44;4866855;28;20030;-81
2022/02/24 02:23:06;;;;;;;14.32;2.55;;;4.70;99.90;;;3.09;92.33;101334.75;4903530;28;20029;-80
2022/02/24 02:25:31;;;;;;;14.20;2.50;;;4.70;99.90;;;3.08;92.07;101331.28;4909613;28;20523;-81
2022/02/24 02:28:07;;;;;;;16.88;2.65;;;4.70;99.90;;;3.09;92.24;101329.56;4908939;28;20078;-81
2022/02/24 02:30:33;;;;;;;9.25;2.75;;;4.60;99.90;;;3.01;91.99;101324.38;4892688;28;21013;-81
2022/02/24 02:32:59;;;;;;;13.68;2.30;;;4.60;99.90;;;3.03;92.18;101330.44;4893424;28;20033;-81
2022/02/24 02:35:30;;;;;;;11.35;2.58;;;4.60;99.90;;;3.03;92.01;101324.38;4981386;28;20042;-79
2022/02/24 02:37:57;;;;;;;17.05;2.95;;;4.60;99.90;;;3.01;92.47;101324.38;4946737;28;20440;-80
2022/02/24 02:40:25;;;;;;;19.25;2.90;;;4.60;99.90;;;2.99;92.44;101318.31;4897398;28;20026;-81
2022/02/24 02:42:52;;;;;;;14.98;2.40;;;4.60;99.90;;;3.01;92.01;101306.19;4870097;28;20019;-80
2022/02/24 02:45:23;;;;;;;13.85;2.65;;;4.60;99.90;;;3.04;91.89;101303.53;4909806;28;20061;-81
2022/02/24 02:47:49;;;;;;;16.50;2.53;;;4.60;99.90;;;3.01;91.56;101295.78;4899161;28;20060;-81
2022/02/24 02:50:15;;;;;;;12.75;2.38;;;4.60;99.90;;;2.98;91.86;101292.31;4930052;28;20126;-80
2022/02/24 02:52:42;;;;;;;18.88;3.17;;;4.50;99.90;;;2.97;91.79;101282.78;4938225;28;20037;-80
2022/02/24 02:55:15;;;;;;;18.42;2.78;;;4.50;99.90;;;2.94;91.71;101282.78;4897389;28;20062;-81
2022/02/24 02:57:41;;;;;;;16.05;2.85;;;4.50;99.90;;;2.89;91.58;101275.03;4901174;28;20042;-81
2022/02/24 03:00:12;;;;;;;12.52;2.38;;;4.50;99.90;;;2.85;91.63;101273.31;4913091;28;20046;-80
2022/02/24 03:02:47;;;;;;;14.55;2.38;;;4.40;99.90;;;2.88;91.59;101265.50;4940782;28;20087;-81
2022/02/24 03:05:13;;;;;;;10.60;2.38;;;4.50;99.90;;;2.87;91.46;101264.66;4887552;28;20050;-81
2022/02/24 03:07:39;;;;;;;18.20;2.33;;;4.50;99.90;;;2.91;91.58;101257.66;4896010;28;20455;-81
2022/02/24 03:10:11;;;;;;;20.83;2.92;;;;;;;2.92;91.66;101254.22;4965266;28;20030;-80
2022/02/24 03:12:37;;;;;;;15.38;2.88;;;4.50;99.90;;;2.95;91.20;101258.53;4914006;28;20036;-80
2022/02/24 03:15:17;;;;;;;13.05;2.35;;;4.50;99.90;;;2.94;91.09;101251.56;4889757;28;20082;-81
2022/02/24 03:17:55;;;;;;;11.35;1.98;;;;;;;2.97;90.70;101247.22;4904433;28;20038;-80
2022/02/24 03:20:23;;;;;;;12.95;2.30;;;4.50;99.90;;;2.98;90.97;101246.38;4919224;28;20473;-80
2022/02/24 03:22:49;;;;;;;12.27;2.58;;;4.50;99.90;;;2.99;90.73;101245.47;4889151;28;20435;-81
2022/02/24 03:25:15;;;;;;;14.95;2.20;;;4.60;99.90;;;2.99;90.53;101245.47;4948665;28;20042;-80
2022/02/24 03:27:47;;;;;;;16.77;3.13;;;;;;;3.01;90.80;101245.47;4906028;28;20026;-81
2022/02/24 03:30:16;;;;;;;13.63;2.30;;;4.60;99.90;;;3.00;90.15;101236.81;4892930;28;20111;-81
2022/02/24 03:32:43;;;;;;;11.57;2.17;;;4.60;99.90;;;3.03;90.20;101228.97;4883379;28;20026;-81
2022/02/24 03:35:16;;;;;;;16.70;2.80;;;4.60;99.90;;;3.02;90.06;101240.28;4893860;28;20038;-81
2022/02/24 03:37:42;;;;;;;11.52;3.20;;;4.60;99.90;;;3.02;90.09;101232.47;4867640;28;20096;-80
2022/02/24 03:40:11;;;;;;;10.43;1.88;;;4.60;99.90;;;3.02;90.09;101214.25;4899726;28;20041;-81
2022/02/24 03:42:44;;;;;;;12.25;2.40;;;4.60;99.90;;;3.00;89.80;101213.41;4892537;28;20034;-81
2022/02/24 03:45:11;;;;;;;14.48;2.40;;;4.60;99.90;;;2.99;89.67;101218.59;4903563;28;20038;-80
2022/02/24 03:47:37;;;;;;;9.88;2.03;;;4.60;99.90;;;3.04;89.94;101227.22;4916013;28;20046;-81
2022/02/24 03:50:13;;;;;;;12.95;2.00;;;4.60;99.90;;;3.04;89.61;101209.88;4919186;28;20117;-81
2022/02/24 03:52:41;;;;;;;14.68;2.08;;;4.60;99.90;;;3.08;89.45;101203.78;4904391;28;20103;-80
2022/02/24 03:55:12;;;;;;;12.10;2.30;;;4.60;99.90;;;3.09;89.28;101204.66;4871844;28;20038;-81
2022/02/24 03:57:42;;;;;;;14.95;2.28;;;;;;;3.12;89.19;101193.38;4848805;28;20069;-80
2022/02/24 04:00:09;;;;;;;19.67;2.97;;;4.70;99.90;;;3.14;89.26;101196.81;4914997;28;20405;-81
2022/02/24 04:02:36;;;;;;;7.85;2.05;;;4.70;99.90;;;3.11;89.05;101187.31;4929520;28;20041;-80
2022/02/24 04:05:11;;;;;;;10.45;1.98;;;4.80;99.90;;;3.07;89.18;101176.03;4896247;28;20051;-81
2022/02/24 04:07:37;;;;;;;14.10;2.80;;;4.60;99.90;;;3.04;89.28;101188.22;4901837;28;20031;-80
2022/02/24 04:10:04;;;;;;;10.95;1.83;;;4.60;99.90;;;3.00;89.18;101173.50;4909112;28;20043;-80
2022/02/24 04:12:39;;;;;;;15.60;2.28;;;4.60;99.90;;;2.99;89.09;101175.25;4893685;28;20072;-81
2022/02/24 04:15:06;;;;;;;5.53;1.70;;;4.60;99.90;;;2.98;89.14;101173.53;4885685;28;20039;-81
2022/02/24 04:17:32;;;;;;;15.35;2.13;;;4.60;99.90;;;3.01;89.20;101170.88;4906494;28;20408;-81
2022/02/24 04:20:07;;;;;;;12.77;1.58;;;4.60;99.90;;;3.01;88.93;101181.28;4891158;28;20027;-81
2022/02/24 04:22:33;;;;;;;16.70;2.35;;;4.60;99.90;;;2.99;89.05;101167.44;4900231;28;20030;-80
2022/02/24 04:24:58;;;;;;;12.40;2.15;;;4.60;99.90;;;3.00;88.76;101171.78;4895908;28;20046;-81
2022/02/24 04:27:24;;;;;;;15.00;2.50;;;4.60;99.90;;;2.99;89.02;101172.63;4913299;28;20037;-81
2022/02/24 04:29:56;;;;;;;9.95;1.95;;;4.60;99.90;;;2.96;89.07;101166.59;4908397;28;20053;-80
2022/02/24 04:32:24;;;;;;;13.23;2.85;;;4.50;99.90;;;2.95;89.15;101163.13;4868772;28;20043;-81
2022/02/24 04:34:50;;;;;;;15.88;2.60;;;4.60;99.90;;;2.98;88.96;101157.03;4906716;28;20022;-80
2022/02/24 04:37:16;;;;;;;13.35;2.63;;;4.50;99.90;;;2.93;88.92;101154.47;4900517;28;20529;-81
2022/02/24 04:39:51;;;;;;;11.50;1.95;;;4.50;99.90;;;2.97;89.16;101156.19;4903097;28;20030;-80
2022/02/24 04:42:17;;;;;;;8.35;2.03;;;4.60;99.90;;;3.01;89.10;101144.88;4859880;28;20121;-81
2022/02/24 04:44:43;;;;;;;14.82;2.40;;;4.60;99.90;;;3.08;88.88;101140.47;4926454;28;20026;-80
2022/02/24 04:47:08;;;;;;;15.10;2.42;;;4.60;99.90;;;3.11;88.95;101142.19;4907448;28;20025;-81
2022/02/24 04:49:45;;;;;;;15.35;2.30;;;4.70;99.90;;;3.13;88.60;101135.22;4893280;28;20537;-81
2022/02/24 04:52:11;;;;;;;10.20;2.20;;;4.70;99.90;;;3.21;88.00;101139.47;4872760;28;20069;-81
2022/02/24 04:54:45;;;;;;;23.45;2.63;;;4.70;99.90;;;3.23;88.19;101129.06;4933836;28;20558;-81
2022/02/24 04:57:10;;;;;;;13.27;2.40;;;4.70;99.90;;;3.27;87.93;101133.38;4898378;28;20555;-80
2022/02/24 04:59:37;;;;;;;10.75;2.08;;;4.70;99.90;;;3.22;87.90;101133.41;4895402;28;20035;-80
2022/02/24 05:02:03;;;;;;;11.38;2.45;;;4.70;99.90;;;3.22;88.07;101133.41;4893704;28;20026;-80
2022/02/24 05:04:38;;;;;;;8.70;2.22;;;4.70;99.90;;;3.25;88.18;101135.13;4880483;28;20030;-80
2022/02/24 05:07:04;;;;;;;9.30;2.17;;;4.70;99.90;;;3.26;87.85;101123.81;4895202;28;20046;-80
2022/02/24 05:09:30;;;;;;;16.38;2.38;;;4.80;99.90;;;3.28;87.76;101128.16;4889489;28;20403;-80
2022/02/24 05:11:56;;;;;;;15.75;2.20;;;4.80;99.90;;;3.31;87.73;101123.78;4909040;28;20038;-81
2022/02/24 05:14:31;;;;;;;14.27;2.72;;;4.80;99.90;;;3.33;87.44;101122.03;4932083;28;20034;-81
2022/02/24 05:16:58;;;;;;;14.85;2.50;;;;;;;3.33;87.91;101116.84;4937974;28;20043;-81
2022/02/24 05:19:24;;;;;;;9.50;2.15;;;4.80;99.90;;;3.36;87.34;101120.25;4923389;28;20026;-81
2022/02/24 05:21:58;;;;;;;15.68;2.63;;;3.70;99.90;;;3.38;87.26;101115.88;4876390;28;20514;-81
2022/02/24 05:24:24;;;;;;;14.18;2.92;;;4.80;99.90;;;3.27;88.09;101115.16;4950047;28;20034;-81
2022/02/24 05:26:50;;;;;;;17.40;2.88;;;4.80;99.90;;;3.26;88.24;101121.22;4955901;28;20118;-81
2022/02/24 05:29:16;;;;;;;14.13;2.33;;;4.70;99.90;;;3.23;88.57;101121.25;4914260;28;20113;-81
2022/02/24 05:31:51;;;;;;;15.25;2.80;;;4.70;99.90;;;3.18;88.69;101120.44;4881340;28;20037;-81
2022/02/24 05:34:17;;;;;;;8.98;2.17;;;4.70;99.90;;;3.20;88.56;101116.94;4894308;28;20454;-81
2022/02/24 05:36:43;;;;;;;13.05;2.60;;;4.70;99.90;;;3.16;89.03;101123.06;4907047;28;20034;-81
2022/02/24 05:39:17;;;;;;;13.50;2.63;;;4.70;99.90;;;3.15;88.69;101120.47;4901726;28;20037;-81
2022/02/24 05:41:44;;;;;;;11.27;2.28;;;4.70;99.90;;;3.15;88.41;101118.72;4889644;28;20526;-81
2022/02/24 05:44:10;;;;;;;13.77;2.33;;;4.60;99.90;;;3.15;88.65;101116.13;4915392;28;20029;-81
2022/02/24 05:46:36;;;;;;;13.15;2.25;;;4.70;99.90;;;3.16;88.74;101111.78;4877120;28;20050;-81
2022/02/24 05:49:14;;;;;;;12.18;2.40;;;4.70;99.90;;;3.08;88.34;101115.31;4871174;28;20092;-81
2022/02/24 05:51:46;;;;;;;14.80;2.85;;;4.70;99.90;;;3.15;88.55;101113.50;4909388;28;20042;-80
2022/02/24 05:54:12;;;;;;;14.07;3.00;;;4.70;99.90;;;3.15;88.35;101117.84;4910308;28;20034;-82
2022/02/24 05:56:38;;;;;;;14.35;2.50;;;4.70;99.90;;;3.18;88.69;101113.50;4901716;28;20058;-82
2022/02/24 05:59:05;;;;;;;15.55;3.10;;;4.70;99.90;;;3.16;88.52;101122.22;4960251;28;20050;-81
2022/02/24 06:01:38;;;;;;;20.02;2.80;;;4.70;99.90;;;3.15;88.88;101123.06;4911658;28;20050;-80
2022/02/24 06:04:05;;;;;;;20.23;2.60;;;4.70;99.90;;;3.15;88.78;101115.25;4919850;28;20034;-81
2022/02/24 06:06:30;;;;;;;15.50;2.65;;;4.70;99.90;;;3.14;88.61;101118.75;4959576;28;20041;-82
2022/02/24 06:08:56;;;;;;;13.13;2.22;;;4.60;99.90;;;3.10;88.85;101111.84;4901015;28;20096;-80
2022/02/24 06:11:22;;;;;;;13.38;2.72;;;4.60;99.90;;;3.07;88.85;101104.94;4863282;28;20039;-82
2022/02/24 06:13:48;;;;;;;14.73;2.70;;;4.70;99.90;;;3.14;89.01;101110.94;4913435;28;20029;-81
2022/02/24 06:16:21;;;;;;;11.85;2.33;;;4.70;99.90;;;3.16;89.35;101109.19;4895838;28;20398;-81
2022/02/24 06:18:47;;;;;;;10.13;2.33;;;4.70;99.90;;;3.17;89.27;101109.16;4871082;28;20086;-81
2022/02/24 06:21:16;;;;;;;16.63;2.80;;;4.70;99.90;;;3.19;89.17;101099.59;4904128;28;20034;-81
2022/02/24 06:23:51;;;;;;;11.88;2.42;;;4.70;99.90;;;3.21;89.36;101104.78;4885618;28;20119;-81
2022/02/24 06:26:17;;;;;;;13.80;2.72;;;4.70;99.90;;;3.19;89.50;101098.75;4929160;28;20536;-81
2022/02/24 06:28:43;;;;;;;14.70;3.20;;;4.70;99.90;;;3.23;89.71;101092.63;4893605;28;20069;-81
2022/02/24 06:31:18;;;;;;;19.23;2.80;;;4.70;99.90;;;3.25;89.55;101090.88;4885776;28;20030;-80
2022/02/24 06:33:44;;;;;;;22.13;2.75;;;4.70;99.90;;;3.22;89.67;101089.16;4921850;28;20030;-81
2022/02/24 06:36:10;;;;;;;14.98;2.50;;;4.80;99.90;;;3.23;89.68;101090.03;4894909;28;20042;-81
2022/02/24 06:38:36;;;;;;;11.65;2.40;;;4.80;99.90;;;3.23;89.34;101084.81;4887095;28;20759;-81
2022/02/24 06:41:07;;;;;;;7.90;1.95;;;4.80;99.90;;;3.26;89.45;101079.56;4882343;28;20059;-81
2022/02/24 06:43:33;;;;;;;9.82;2.45;;;4.80;99.90;;;3.27;90.12;101071.75;4889243;28;20071;-81
2022/02/24 06:45:59;;;;;;;11.85;2.75;;;4.80;99.90;;;3.27;89.74;101076.97;4892659;28;20049;-80
2022/02/24 06:48:28;;;;;;;13.93;2.70;;;4.80;99.90;;;3.27;89.92;101070.91;4881694;28;20032;-82
2022/02/24 06:51:03;;;;;;;9.65;2.33;;;4.80;99.90;;;3.30;89.62;101070.84;4887172;28;20044;-81
2022/02/24 06:53:29;;;;;;;16.17;3.20;;;;;;;3.30;89.76;101073.47;4885218;28;20117;-81
2022/02/24 06:55:55;;;;;;;14.02;3.17;;;4.90;99.90;;;3.31;90.11;101077.78;4934459;28;20498;-80
2022/02/24 06:58:27;;;;;;;11.93;2.42;;;4.90;99.90;;;3.32;90.12;101070.84;4893239;28;20093;-81
2022/02/24 07:00:53;;;;;;;14.15;2.65;;;4.90;99.90;;;3.34;89.70;101069.09;4908457;28;20065;-81
2022/02/24 07:03:19;;;;;;;15.68;2.58;;;4.90;99.90;;;3.32;89.78;101060.44;4879747;28;20035;-81
2022/02/24 07:05:45;;;;;;;14.88;2.58;;;4.90;99.90;;;3.38;90.00;101061.22;4866960;28;20089;-81
2022/02/24 07:08:11;;;;;;;12.98;3.20;;;;;;;3.33;90.37;101060.44;4885926;28;20128;-81
2022/02/24 07:10:45;;;;;;;10.75;2.17;;;5.00;99.90;;;3.38;89.71;101058.63;4885964;28;20406;-81
2022/02/24 07:13:11;;;;;;;12.25;2.67;;;5.00;99.90;;;3.38;90.14;101050.81;4911811;28;20065;-81
2022/02/24 07:15:37;;;;;;;13.25;2.85;;;4.90;99.90;;;3.42;90.11;101057.72;4920933;28;20518;-82
2022/02/24 07:18:03;;;;;;;10.98;2.88;;;5.00;99.90;;;3.40;89.93;101051.66;4924911;28;20040;-81
2022/02/24 07:20:36;;;;;;;11.50;2.83;;;5.00;99.90;;;3.43;89.78;101048.16;4881426;28;20034;-81
2022/02/24 07:23:02;;;;;;;7.88;2.38;;;5.00;99.90;;;3.44;89.57;101049.88;4902228;28;20114;-81
2022/02/24 07:25:28;;;;;;;13.30;2.95;;;5.00;99.90;;;3.46;89.99;101048.97;4939212;28;20068;-81
2022/02/24 07:27:54;;;;;;;15.23;2.95;;;5.00;99.90;;;3.49;89.81;101050.69;4918263;28;20116;-81
2022/02/24 07:30:21;;;;;;;13.55;2.67;;;5.00;99.90;;;3.53;89.64;101046.31;4875388;28;20027;-81
2022/02/24 07:32:54;;;;;;;15.73;2.95;;;5.10;99.90;;;3.52;89.92;101041.97;4866739;28;20037;-81
2022/02/24 07:35:20;;;;;;;21.13;2.67;;;;;;;3.57;89.92;101046.25;4893515;28;20218;-82
2022/02/24 07:37:46;;;;;;;12.95;2.75;;;5.10;99.90;;;3.55;90.07;101026.31;4890610;28;20042;-81
2022/02/24 07:40:12;;;;;;;10.43;2.30;;;5.10;99.90;;;3.61;89.95;101036.66;4891325;28;20072;-81
2022/02/24 07:42:44;;;;;;;15.93;2.80;;;5.10;99.90;;;3.64;90.14;101039.22;4922935;28;20030;-81
2022/02/24 07:45:10;;;;;;;14.10;3.15;;;5.20;99.90;;;3.68;89.87;101036.53;4896162;28;20045;-81
2022/02/24 07:47:36;;;;;;;11.13;2.47;;;5.20;99.90;;;3.70;89.77;101040.00;4908203;28;20147;-81
2022/02/24 07:50:15;;;;;;;13.25;2.60;;;5.20;99.90;;;3.69;89.79;101034.78;4883645;28;20069;-81
2022/02/24 07:52:51;;;;;;;10.82;2.78;;;5.20;99.90;;;3.77;89.54;101032.09;4887216;28;20122;-82
2022/02/24 07:55:17;;;;;;;;;;;5.30;99.90;;;3.76;89.94;101028.66;4926018;28;20452;-81
2022/02/24 07:57:43;;;;;;;16.63;2.90;;;5.30;99.90;;;3.81;89.39;101036.41;4924928;28;22233;-82
2022/02/24 08:00:13;;;;;;;13.23;2.75;;;5.30;99.90;;;3.84;89.27;101020.72;4922254;23;20270;-81
2022/02/24 08:02:47;;;;;;;18.17;2.72;;;5.30;99.90;;;3.81;89.47;101024.22;4941383;28;20077;-82
2022/02/24 08:05:13;;;;;;;17.40;2.95;;;5.40;99.90;;;3.90;89.35;101012.81;4937532;23;20173;-80
2022/02/24 08:07:40;;;;;;;11.00;2.45;;;5.40;99.90;;;3.95;89.27;101016.19;4909135;28;20031;-80
2022/02/24 08:10:09;;;;;;;13.73;2.92;;;5.50;99.90;;;3.99;89.29;101015.28;4910212;28;21111;-81
2022/02/24 08:12:44;;;;;;;17.00;3.50;;;5.50;99.90;;;4.05;89.15;101003.91;4905560;28;20027;-80
2022/02/24 08:15:13;;;;;;;11.15;2.63;;;5.50;99.90;;;4.09;89.20;100997.78;4894459;28;20031;-80
2022/02/24 08:17:40;;;;;;;16.00;3.15;;;5.60;99.90;;;4.17;88.74;100997.63;4896635;28;20035;-81
2022/02/24 08:20:08;;;;;;;14.77;3.38;;;5.60;99.90;;;4.17;88.98;100990.69;4893977;28;20175;-79
2022/02/24 08:22:37;;;;;;;13.90;2.70;;;5.70;99.90;;;4.25;88.73;100982.72;4914562;28;20050;-81
2022/02/24 08:25:06;;;;;;;18.13;3.20;;;5.70;99.90;;;4.35;88.40;100980.84;4898290;28;20019;-81
2022/02/24 08:27:36;;;;;;;13.43;3.00;;;5.80;99.90;;;4.44;88.19;100980.69;4919074;28;20507;-79
2022/02/24 08:30:09;;;;;;;9.32;2.35;;;5.90;99.90;;;4.48;88.02;100980.59;4909085;28;20538;-80
2022/02/24 08:32:37;;;;;;;11.80;2.55;;;5.90;99.90;;;4.48;87.82;100964.97;4888320;28;20035;-80
2022/02/24 08:35:11;;;;;;;10.75;3.00;;;5.90;99.90;;;4.42;87.61;100970.28;4916796;28;20038;-79
2022/02/24 08:37:40;;;;;;;12.70;2.65;;;5.90;99.90;;;4.39;87.50;100966.88;4907110;28;20602;-81
2022/02/24 08:40:08;;;;;;;10.23;2.88;;;5.90;99.90;;;4.35;87.92;100960.84;4890864;28;20027;-79
2022/02/24 08:42:34;;;;;;;16.60;3.13;;;5.90;99.90;;;4.36;88.08;100948.66;4924566;28;20024;-79
2022/02/24 08:45:00;;;;;;;12.13;3.00;;;5.90;99.90;;;4.33;88.32;100949.59;4917932;28;20623;-80
2022/02/24 08:47:26;;;;;;;10.45;3.10;;;5.90;99.90;;;4.40;88.58;100945.13;4868879;28;20028;-80
2022/02/24 08:49:55;;;;;;;11.00;2.90;;;5.90;99.90;;;4.46;88.48;100942.41;4894248;28;20088;-81
2022/02/24 08:52:21;;;;;;;12.35;2.97;;;5.90;99.90;;;4.60;88.47;100940.44;4916252;28;20024;-79
2022/02/24 08:54:46;;;;;;;17.65;3.53;;;6.00;99.90;;;4.67;88.01;100938.56;4914067;28;20019;-80
2022/02/24 08:57:14;;;;;;;9.85;2.63;;;6.10;99.90;;;4.76;87.49;100927.09;4916162;28;20035;-80
2022/02/24 08:59:41;;;;;;;19.17;3.15;;;6.10;99.90;;;4.81;87.23;100925.25;4883929;28;20031;-79
2022/02/24 09:02:07;;;;;;;15.55;2.63;;;6.10;99.90;;;4.80;87.33;100919.16;4922947;28;20027;-81
2022/02/24 09:04:33;;;;;;;13.25;2.70;;;6.20;99.90;;;4.78;87.18;100917.47;4900393;28;20035;-80
2022/02/24 09:06:59;;;;;;;15.13;2.72;;;6.20;99.90;;;4.77;87.13;100915.75;4898279;28;20051;-80
2022/02/24 09:09:25;;;;;;;12.77;2.88;;;6.20;99.90;;;4.74;87.32;100916.69;4884122;28;20045;-79
2022/02/24 09:11:52;;;;;;;18.92;3.40;;;6.20;99.90;;;4.78;87.58;100914.88;4905095;28;20031;-80
2022/02/24 09:14:19;;;;;;;11.10;2.78;;;6.20;99.90;;;4.69;87.52;100908.09;4899018;28;20484;-79
2022/02/24 09:16:45;;;;;;;13.57;2.80;;;6.20;99.90;;;4.70;87.42;100895.00;4910697;28;20043;-80
2022/02/24 09:19:12;;;;;;;12.02;2.83;;;6.10;99.90;;;4.69;87.45;100901.13;4906603;28;20437;-82
2022/02/24 09:21:39;;;;;;;18.23;2.92;;;6.20;99.90;;;4.67;87.52;100889.84;4898642;28;20558;-79
2022/02/24 09:24:06;;;;;;;14.10;3.13;;;6.10;99.90;;;4.63;88.00;100892.56;4899364;28;20039;-80
2022/02/24 09:26:33;;;;;;;12.25;2.95;;;6.10;99.90;;;4.65;87.63;100886.41;4845127;28;20042;-79
2022/02/24 09:29:04;;;;;;;13.18;2.80;;;6.10;99.90;;;4.64;87.79;100884.69;4861710;28;20031;-80
2022/02/24 09:31:31;;;;;;;14.48;2.80;;;6.10;99.90;;;4.65;87.88;100878.59;4875857;28;20740;-80
2022/02/24 09:33:57;;;;;;;16.73;3.70;;;6.10;99.90;;;4.71;88.11;100869.78;4947177;28;20748;-79
2022/02/24 09:36:23;;;;;;;11.57;2.50;;;6.20;99.90;;;4.75;87.55;100866.19;4905755;28;20024;-79
2022/02/24 09:38:49;;;;;;;7.72;2.70;;;6.20;99.90;;;4.83;87.23;100863.44;4898174;28;20036;-79
2022/02/24 09:41:15;;;;;;;15.60;2.55;;;6.30;99.90;;;4.92;87.31;100853.69;4886788;28;20127;-84
2022/02/24 09:43:49;;;;;;;12.70;3.45;;;;;;;5.05;87.03;100843.81;4828353;28;20039;-85
2022/02/24 09:46:16;;;;;;;10.75;2.58;;;6.50;99.90;;;5.17;86.70;100836.63;4844508;28;20127;-87
2022/02/24 09:48:45;;;;;;;15.95;3.22;;;6.50;99.90;;;5.24;86.28;100839.06;4823350;29;20175;-86
2022/02/24 09:54:15;;;;;;;15.90;3.10;;;6.70;99.90;;;5.49;85.87;100828.91;4860642;28;20459;-80
2022/02/24 09:56:43;;;;;;;10.40;3.00;;;6.80;99.90;;;5.71;85.37;100825.78;4840981;28;20038;-80
2022/02/24 09:59:15;;;;;;;14.70;2.75;;;7.00;99.90;;;5.87;84.71;100819.25;4909811;28;20036;-79
2022/02/24 10:01:41;;;;;;;13.25;2.78;;;7.10;99.90;;;5.90;84.30;100816.56;4867808;28;20023;-80
2022/02/24 10:04:10;;;;;;;13.77;2.75;;;7.10;99.90;;;5.87;84.12;100824.47;4909758;28;20063;-79
2022/02/24 10:06:44;;;;;;;12.32;2.80;;;7.20;99.90;;;5.86;83.52;100820.16;4921498;28;20118;-80
2022/02/24 10:09:32;;;;;;;19.67;3.35;;;7.20;99.90;;;5.91;84.10;100820.88;4874210;28;20122;-80
2022/02/24 10:12:10;;;;;;;13.57;2.83;;;7.20;99.90;;;5.98;83.61;100816.38;4895495;28;20043;-81
2022/02/24 10:14:39;;;;;;;13.02;3.30;;;7.30;99.90;;;6.03;83.56;100811.91;4915088;28;20401;-80
2022/02/24 10:17:13;;;;;;;11.55;2.47;;;7.40;99.90;;;6.08;83.61;100804.81;4904335;28;20023;-80
2022/02/24 10:19:44;;;;;;;12.70;3.15;;;7.40;99.90;;;6.10;83.12;100794.31;4892218;28;20043;-80
2022/02/24 10:22:26;;;;;;;7.20;2.80;;;7.40;99.90;;;6.13;83.21;100783.75;4891076;28;20034;-82
2022/02/24 10:25:11;;;;;;;9.55;2.58;;;7.50;99.90;;;6.09;83.42;100774.28;4909348;28;20034;-79
2022/02/24 10:27:44;;;;;;;12.65;3.05;;;7.50;99.90;;;6.07;83.46;100776.06;4897151;28;20086;-80
2022/02/24 10:30:22;;;;;;;15.82;2.88;;;7.40;99.90;;;6.03;83.95;100769.25;4892305;28;20026;-81
2022/02/24 10:32:55;;;;;;;12.00;2.97;;;7.40;99.90;;;5.98;83.96;100763.25;4867054;28;20461;-81
2022/02/24 10:35:38;;;;;;;10.77;2.65;;;7.40;99.90;;;5.90;84.09;100769.53;4882267;28;20040;-80